createdAt,value
2023-02-02T00:00:16.710Z,-0.61
2023-02-02T00:01:16.532Z,-0.63
2023-02-02T00:02:16.595Z,-0.67
2023-02-02T00:03:16.917Z,-0.64
2023-02-02T00:04:17.934Z,-0.64
2023-02-02T00:05:16.566Z,-0.62
2023-02-02T00:06:17.450Z,-0.63
2023-02-02T00:07:16.622Z,-0.63
2023-02-02T00:08:17.583Z,-0.63
2023-02-02T00:09:18.267Z,-0.61
2023-02-02T00:10:17.066Z,-0.64
2023-02-02T00:11:17.168Z,-0.64
2023-02-02T00:12:17.828Z,-0.65
2023-02-02T00:13:16.680Z,-0.61
2023-02-02T00:14:17.580Z,-0.64
2023-02-02T00:15:16.715Z,-0.63
2023-02-02T00:17:20.295Z,-0.62
2023-02-02T00:18:20.289Z,-0.62
2023-02-02T00:19:21.535Z,-0.64
2023-02-02T00:20:20.332Z,-0.65
2023-02-02T00:21:20.303Z,-0.66
2023-02-02T00:22:20.396Z,-0.67
2023-02-02T00:23:20.308Z,-0.68
2023-02-02T00:24:20.637Z,-0.67
2023-02-02T00:25:20.437Z,-0.65
2023-02-02T00:26:20.908Z,-0.62
2023-02-02T00:27:20.584Z,-0.66
2023-02-02T00:28:20.431Z,-0.65
2023-02-02T00:29:24.039Z,-0.66
2023-02-02T00:30:20.861Z,-0.68
2023-02-02T00:31:20.776Z,-0.68
2023-02-02T00:32:20.827Z,-0.67
2023-02-02T00:33:20.820Z,-0.67
2023-02-02T00:34:21.237Z,-0.67
2023-02-02T00:35:20.954Z,-0.67
2023-02-02T00:36:21.466Z,-0.67
2023-02-02T00:37:20.816Z,-0.64
2023-02-02T00:38:20.760Z,-0.69
2023-02-02T00:39:22.731Z,-0.66
2023-02-02T00:40:20.818Z,-0.67
2023-02-02T00:41:20.837Z,-0.68
2023-02-02T00:42:20.856Z,-0.65
2023-02-02T00:43:20.932Z,-0.67
2023-02-02T00:44:21.099Z,-0.67
2023-02-02T00:45:20.862Z,-0.67
2023-02-02T00:46:20.907Z,-0.66
2023-02-02T00:47:20.919Z,-0.65
2023-02-02T00:48:21.026Z,-0.63
2023-02-02T00:49:21.391Z,-0.65
2023-02-02T00:50:21.134Z,-0.64
2023-02-02T00:51:20.977Z,-0.7
2023-02-02T00:52:21.056Z,-0.64
2023-02-02T00:53:20.988Z,-0.57
2023-02-02T00:54:21.023Z,-0.59
2023-02-02T00:55:21.069Z,-0.64
2023-02-02T00:56:21.032Z,-0.64
2023-02-02T00:57:21.056Z,-0.68
2023-02-02T00:58:21.077Z,-0.7
2023-02-02T00:59:21.061Z,-0.69
2023-02-02T01:00:22.707Z,-0.73
2023-02-02T01:01:21.697Z,-0.71
2023-02-02T01:02:21.145Z,-0.68
2023-02-02T01:03:21.193Z,-0.67
2023-02-02T01:04:21.124Z,-0.66
2023-02-02T01:05:21.973Z,-0.66
2023-02-02T01:06:21.176Z,-0.65
2023-02-02T01:07:21.142Z,-0.65
2023-02-02T01:08:21.209Z,-0.66
2023-02-02T01:09:21.333Z,-0.67
2023-02-02T01:10:21.236Z,-0.71
2023-02-02T01:11:21.193Z,-0.69
2023-02-02T01:12:21.380Z,-0.65
2023-02-02T01:13:21.360Z,-0.66
2023-02-02T01:14:21.235Z,-0.65
2023-02-02T01:15:21.223Z,-0.61
2023-02-02T01:16:21.711Z,-0.62
2023-02-02T01:17:21.279Z,-0.66
2023-02-02T01:18:21.356Z,-0.65
2023-02-02T01:19:21.299Z,-0.64
2023-02-02T01:20:21.430Z,-0.66
2023-02-02T01:21:21.308Z,-0.64
2023-02-02T01:22:21.451Z,-0.64
2023-02-02T01:23:21.319Z,-0.65
2023-02-02T01:24:21.363Z,-0.64
2023-02-02T01:25:21.347Z,-0.63
2023-02-02T01:26:21.477Z,-0.65
2023-02-02T01:27:21.443Z,-0.65
2023-02-02T01:28:22.094Z,-0.67
2023-02-02T01:29:21.492Z,-0.66
2023-02-02T01:30:21.472Z,-0.67
2023-02-02T01:31:21.591Z,-0.68
2023-02-02T01:32:21.444Z,-0.69
2023-02-02T01:33:22.134Z,-0.69
2023-02-02T01:34:22.133Z,-0.66
2023-02-02T01:35:21.644Z,-0.68
2023-02-02T01:36:22.452Z,-0.64
2023-02-02T01:37:21.842Z,-0.62
2023-02-02T01:38:22.235Z,-0.72
2023-02-02T01:39:21.625Z,-0.73
2023-02-02T01:40:21.595Z,-0.72
2023-02-02T01:41:23.195Z,-0.72
2023-02-02T01:42:22.710Z,-0.7
2023-02-02T01:45:30.314Z,-0.68
2023-02-02T01:46:31.635Z,-0.67
2023-02-02T01:47:30.123Z,-0.67
2023-02-02T01:48:30.863Z,-0.64
2023-02-02T01:49:28.329Z,-0.62
2023-02-02T01:50:31.033Z,-0.65
2023-02-02T01:51:30.860Z,-0.7
2023-02-02T01:52:30.132Z,-0.7
2023-02-02T01:53:29.115Z,-0.66
2023-02-02T01:54:30.972Z,-0.68
2023-02-02T01:55:29.579Z,-0.69
2023-02-02T01:56:33.982Z,-0.67
2023-02-02T01:57:36.949Z,-0.68
2023-02-02T01:58:35.170Z,-0.65
2023-02-02T01:59:34.332Z,-0.68
2023-02-02T02:00:33.794Z,-0.7
2023-02-02T02:01:33.754Z,-0.69
2023-02-02T02:02:33.986Z,-0.7
2023-02-02T02:03:35.826Z,-0.68
2023-02-02T02:04:33.795Z,-0.68
2023-02-02T02:05:36.162Z,-0.65
2023-02-02T02:06:33.920Z,-0.65
2023-02-02T02:07:33.895Z,-0.69
2023-02-02T02:08:42.016Z,-0.66
2023-02-02T02:09:38.746Z,-0.69
2023-02-02T02:10:38.975Z,-0.66
2023-02-02T02:11:38.759Z,-0.66
2023-02-02T02:12:39.177Z,-0.67
2023-02-02T02:13:38.831Z,-0.65
2023-02-02T02:14:45.144Z,-0.66
2023-02-02T02:31:31.053Z,-0.72
2023-02-02T02:36:39.347Z,-0.69
2023-02-02T02:39:47.435Z,-0.71
2023-02-02T02:40:46.044Z,-0.71
2023-02-02T02:41:46.391Z,-0.7
2023-02-02T02:42:45.837Z,-0.67
2023-02-02T02:44:47.938Z,-0.69
2023-02-02T02:45:47.198Z,-0.68
2023-02-02T02:46:47.006Z,-0.67
2023-02-02T02:47:48.324Z,-0.68
2023-02-02T02:48:46.778Z,-0.7
2023-02-02T02:49:47.714Z,-0.7
2023-02-02T02:50:46.909Z,-0.67
2023-02-02T02:51:50.703Z,-0.68
2023-02-02T02:52:47.629Z,-0.66
2023-02-02T02:53:46.944Z,-0.68
2023-02-02T02:59:03.032Z,-0.67
2023-02-02T03:01:09.734Z,-0.64
2023-02-02T03:03:09.525Z,-0.68
2023-02-02T03:07:26.490Z,-0.7
2023-02-02T03:09:21.922Z,-0.64
2023-02-02T03:10:22.774Z,-0.69
2023-02-02T03:11:19.718Z,-0.66
2023-02-02T03:12:19.410Z,-0.7
2023-02-02T03:13:19.737Z,-0.68
2023-02-02T03:14:19.362Z,-0.7
2023-02-02T03:15:19.531Z,-0.71
2023-02-02T03:16:19.407Z,-0.69
2023-02-02T03:17:19.441Z,-0.67
2023-02-02T03:18:21.565Z,-0.67
2023-02-02T03:19:19.423Z,-0.71
2023-02-02T03:20:19.751Z,-0.73
2023-02-02T03:21:19.495Z,-0.74
2023-02-02T03:22:19.474Z,-0.72
2023-02-02T03:23:19.519Z,-0.7
2023-02-02T03:24:19.536Z,-0.69
2023-02-02T03:25:19.542Z,-0.69
2023-02-02T03:26:19.780Z,-0.71
2023-02-02T03:27:19.527Z,-0.68
2023-02-02T03:28:19.817Z,-0.71
2023-02-02T03:29:19.752Z,-0.71
2023-02-02T03:30:19.971Z,-0.72
2023-02-02T03:31:19.909Z,-0.71
2023-02-02T03:32:19.633Z,-0.74
2023-02-02T03:33:19.761Z,-0.73
2023-02-02T03:34:19.675Z,-0.74
2023-02-02T03:35:19.636Z,-0.69
2023-02-02T03:36:19.637Z,-0.67
2023-02-02T03:37:19.673Z,-0.69
2023-02-02T03:38:19.658Z,-0.71
2023-02-02T03:39:19.732Z,-0.71
2023-02-02T03:40:19.829Z,-0.74
2023-02-02T03:41:19.695Z,-0.7
2023-02-02T03:42:19.730Z,-0.69
2023-02-02T03:43:20.520Z,-0.72
2023-02-02T03:44:19.735Z,-0.71
2023-02-02T03:45:19.766Z,-0.71
2023-02-02T03:46:19.937Z,-0.75
2023-02-02T03:47:19.752Z,-0.74
2023-02-02T03:48:19.784Z,-0.75
2023-02-02T03:49:19.965Z,-0.73
2023-02-02T03:50:20.032Z,-0.71
2023-02-02T03:51:19.842Z,-0.74
2023-02-02T03:52:19.835Z,-0.75
2023-02-02T03:53:20.073Z,-0.75
2023-02-02T03:54:19.874Z,-0.73
2023-02-02T03:55:19.894Z,-0.74
2023-02-02T03:56:19.937Z,-0.75
2023-02-02T03:57:20.124Z,-0.76
2023-02-02T03:58:19.912Z,-0.71
2023-02-02T03:59:19.936Z,-0.72
2023-02-02T04:00:20.338Z,-0.72
2023-02-02T04:02:22.509Z,-0.72
2023-02-02T04:03:22.126Z,-0.74
2023-02-02T04:04:22.165Z,-0.73
2023-02-02T04:05:22.387Z,-0.76
2023-02-02T04:06:22.463Z,-0.75
2023-02-02T04:07:22.679Z,-0.74
2023-02-02T04:08:22.733Z,-0.74
2023-02-02T04:09:22.680Z,-0.75
2023-02-02T04:10:22.713Z,-0.77
2023-02-02T04:11:22.709Z,-0.77
2023-02-02T04:12:22.909Z,-0.76
2023-02-02T04:13:22.931Z,-0.75
2023-02-02T04:14:22.722Z,-0.77
2023-02-02T04:15:23.219Z,-0.77
2023-02-02T04:16:22.847Z,-0.77
2023-02-02T04:17:22.777Z,-0.76
2023-02-02T04:18:22.893Z,-0.76
2023-02-02T04:19:22.827Z,-0.79
2023-02-02T04:20:22.840Z,-0.79
2023-02-02T04:21:22.828Z,-0.8
2023-02-02T04:22:22.984Z,-0.73
2023-02-02T04:23:22.910Z,-0.78
2023-02-02T04:24:22.927Z,-0.77
2023-02-02T04:25:23.260Z,-0.76
2023-02-02T04:26:23.292Z,-0.75
2023-02-02T04:27:22.935Z,-0.73
2023-02-02T04:28:23.374Z,-0.73
2023-02-02T04:29:22.957Z,-0.74
2023-02-02T04:30:22.951Z,-0.74
2023-02-02T04:31:23.179Z,-0.74
2023-02-02T04:32:22.980Z,-0.75
2023-02-02T04:33:24.259Z,-0.72
2023-02-02T04:34:23.516Z,-0.7
2023-02-02T04:35:24.003Z,-0.75
2023-02-02T04:36:23.670Z,-0.76
2023-02-02T04:37:23.563Z,-0.76
2023-02-02T04:38:23.682Z,-0.75
2023-02-02T04:39:23.720Z,-0.77
2023-02-02T04:40:23.824Z,-0.76
2023-02-02T04:41:24.131Z,-0.75
2023-02-02T04:42:23.653Z,-0.76
2023-02-02T04:43:23.642Z,-0.74
2023-02-02T04:44:23.857Z,-0.73
2023-02-02T04:45:24.179Z,-0.75
2023-02-02T04:46:23.682Z,-0.74
2023-02-02T04:47:23.767Z,-0.74
2023-02-02T04:48:23.710Z,-0.78
2023-02-02T04:49:23.842Z,-0.78
2023-02-02T04:50:23.803Z,-0.8
2023-02-02T04:51:23.770Z,-0.77
2023-02-02T04:52:23.777Z,-0.76
2023-02-02T04:53:23.773Z,-0.76
2023-02-02T04:54:23.811Z,-0.78
2023-02-02T04:55:24.847Z,-0.79
2023-02-02T04:56:23.807Z,-0.83
2023-02-02T04:57:23.844Z,-0.79
2023-02-02T04:58:24.291Z,-0.79
2023-02-02T04:59:23.923Z,-0.79
2023-02-02T05:00:23.904Z,-0.77
2023-02-02T05:01:24.438Z,-0.76
2023-02-02T05:02:23.927Z,-0.77
2023-02-02T05:03:23.982Z,-0.76
2023-02-02T05:04:24.095Z,-0.73
2023-02-02T05:05:24.380Z,-0.73
2023-02-02T05:06:24.076Z,-0.75
2023-02-02T05:07:24.037Z,-0.75
2023-02-02T05:08:24.074Z,-0.78
2023-02-02T05:09:24.206Z,-0.76
2023-02-02T05:10:24.056Z,-0.74
2023-02-02T05:11:24.125Z,-0.75
2023-02-02T05:12:24.102Z,-0.73
2023-02-02T05:13:24.456Z,-0.75
2023-02-02T05:14:24.108Z,-0.75
2023-02-02T05:15:24.514Z,-0.72
2023-02-02T05:16:25.892Z,-0.74
2023-02-02T05:17:24.249Z,-0.77
2023-02-02T05:18:24.179Z,-0.77
2023-02-02T05:19:24.205Z,-0.78
2023-02-02T05:20:24.202Z,-0.74
2023-02-02T05:21:24.228Z,-0.8
2023-02-02T05:22:24.310Z,-0.76
2023-02-02T05:23:24.253Z,-0.73
2023-02-02T05:24:24.265Z,-0.78
2023-02-02T05:25:24.723Z,-0.76
2023-02-02T05:26:25.527Z,-0.76
2023-02-02T05:27:24.486Z,-0.72
2023-02-02T05:28:24.739Z,-0.77
2023-02-02T05:29:24.562Z,-0.67
2023-02-02T05:30:24.373Z,-0.71
2023-02-02T05:31:24.409Z,-0.73
2023-02-02T05:32:24.709Z,-0.72
2023-02-02T05:33:24.440Z,-0.72
2023-02-02T05:34:24.565Z,-0.71
2023-02-02T05:35:24.912Z,-0.7
2023-02-02T05:36:24.537Z,-0.75
2023-02-02T05:37:24.548Z,-0.74
2023-02-02T05:38:24.615Z,-0.73
2023-02-02T05:39:24.536Z,-0.69
2023-02-02T05:40:24.921Z,-0.72
2023-02-02T05:41:24.549Z,-0.74
2023-02-02T05:42:24.582Z,-0.74
2023-02-02T05:43:25.252Z,-0.76
2023-02-02T05:44:24.586Z,-0.76
2023-02-02T05:45:24.933Z,-0.75
2023-02-02T05:46:24.656Z,-0.75
2023-02-02T05:47:24.782Z,-0.73
2023-02-02T05:48:26.189Z,-0.76
2023-02-02T05:49:24.741Z,-0.76
2023-02-02T05:50:24.682Z,-0.75
2023-02-02T05:51:29.324Z,-0.74
2023-02-02T05:52:25.745Z,-0.73
2023-02-02T05:53:25.574Z,-0.75
2023-02-02T05:54:25.568Z,-0.76
2023-02-02T05:55:25.906Z,-0.71
2023-02-02T05:56:25.586Z,-0.73
2023-02-02T05:57:25.896Z,-0.73
2023-02-02T05:58:25.644Z,-0.71
2023-02-02T05:59:25.653Z,-0.73
2023-02-02T06:00:26.245Z,-0.73
2023-02-02T06:01:25.762Z,-0.7
2023-02-02T06:02:25.729Z,-0.76
2023-02-02T06:03:25.910Z,-0.79
2023-02-02T06:04:25.918Z,-0.77
2023-02-02T06:05:26.121Z,-0.75
2023-02-02T06:06:25.742Z,-0.73
2023-02-02T06:07:25.781Z,-0.75
2023-02-02T06:08:26.003Z,-0.72
2023-02-02T06:09:25.843Z,-0.75
2023-02-02T06:10:25.838Z,-0.77
2023-02-02T06:11:25.813Z,-0.76
2023-02-02T06:12:25.835Z,-0.76
2023-02-02T06:13:26.029Z,-0.75
2023-02-02T06:14:25.915Z,-0.71
2023-02-02T06:15:26.298Z,-0.67
2023-02-02T06:16:25.958Z,-0.75
2023-02-02T06:17:25.929Z,-0.76
2023-02-02T06:18:26.054Z,-0.76
2023-02-02T06:19:25.954Z,-0.73
2023-02-02T06:20:25.967Z,-0.74
2023-02-02T06:21:26.007Z,-0.72
2023-02-02T06:22:26.305Z,-0.67
2023-02-02T06:23:26.179Z,-0.72
2023-02-02T06:24:26.084Z,-0.71
2023-02-02T06:25:26.782Z,-0.74
2023-02-02T06:26:26.121Z,-0.74
2023-02-02T06:27:26.093Z,-0.76
2023-02-02T06:28:26.151Z,-0.74
2023-02-02T06:29:26.199Z,-0.75
2023-02-02T06:30:26.785Z,-0.75
2023-02-02T06:31:26.326Z,-0.74
2023-02-02T06:32:28.240Z,-0.74
2023-02-02T06:33:26.370Z,-0.73
2023-02-02T06:34:26.204Z,-0.68
2023-02-02T06:35:26.588Z,-0.73
2023-02-02T06:36:26.927Z,-0.74
2023-02-02T06:37:26.235Z,-0.74
2023-02-02T06:38:26.450Z,-0.7
2023-02-02T06:39:26.251Z,-0.71
2023-02-02T06:40:26.847Z,-0.74
2023-02-02T06:41:26.373Z,-0.72
2023-02-02T06:42:26.357Z,-0.77
2023-02-02T06:43:26.681Z,-0.75
2023-02-02T06:44:26.331Z,-0.73
2023-02-02T06:45:27.239Z,-0.71
2023-02-02T06:46:26.505Z,-0.74
2023-02-02T06:47:26.965Z,-0.74
2023-02-02T06:48:27.021Z,-0.72
2023-02-02T06:49:26.395Z,-0.72
2023-02-02T06:50:26.516Z,-0.7
2023-02-02T06:51:26.456Z,-0.71
2023-02-02T06:52:26.466Z,-0.67
2023-02-02T06:53:26.762Z,-0.71
2023-02-02T06:54:26.536Z,-0.73
2023-02-02T06:55:26.833Z,-0.73
2023-02-02T06:56:26.652Z,-0.73
2023-02-02T06:57:26.541Z,-0.73
2023-02-02T06:58:27.401Z,-0.7
2023-02-02T06:59:26.637Z,-0.7
2023-02-02T07:00:27.382Z,-0.67
2023-02-02T07:01:26.650Z,-0.71
2023-02-02T07:02:26.782Z,-0.66
2023-02-02T07:03:26.680Z,-0.72
2023-02-02T07:04:26.703Z,-0.68
2023-02-02T07:05:30.064Z,-0.65
2023-02-02T07:06:27.720Z,-0.68
2023-02-02T07:07:27.034Z,-0.62
2023-02-02T07:08:26.929Z,-0.65
2023-02-02T07:09:26.965Z,-0.63
2023-02-02T07:11:13.546Z,-0.65
2023-02-02T07:11:28.092Z,-0.65
2023-02-02T07:12:28.116Z,-0.67
2023-02-02T07:13:28.446Z,-0.64
2023-02-02T07:14:28.171Z,-0.62
2023-02-02T07:15:28.176Z,-0.6
2023-02-02T07:16:28.210Z,-0.63
2023-02-02T07:17:28.205Z,-0.67
2023-02-02T07:18:28.215Z,-0.67
2023-02-02T07:19:28.572Z,-0.68
2023-02-02T07:20:28.258Z,-0.63
2023-02-02T07:21:28.312Z,-0.59
2023-02-02T07:22:28.280Z,-0.6
2023-02-02T07:23:29.192Z,-0.6
2023-02-02T07:24:28.488Z,-0.65
2023-02-02T07:25:28.368Z,-0.62
2023-02-02T07:26:28.603Z,-0.64
2023-02-02T07:27:28.360Z,-0.62
2023-02-02T07:28:28.532Z,-0.62
2023-02-02T07:29:28.413Z,-0.63
2023-02-02T07:30:28.692Z,-0.61
2023-02-02T07:31:28.882Z,-0.63
2023-02-02T07:32:28.507Z,-0.67
2023-02-02T07:33:28.490Z,-0.67
2023-02-02T07:34:28.493Z,-0.63
2023-02-02T07:35:28.513Z,-0.62
2023-02-02T07:36:28.545Z,-0.58
2023-02-02T07:37:28.546Z,-0.61
2023-02-02T07:38:28.550Z,-0.56
2023-02-02T07:39:28.604Z,-0.61
2023-02-02T07:40:28.598Z,-0.62
2023-02-02T07:41:28.597Z,-0.64
2023-02-02T07:42:28.628Z,-0.6
2023-02-02T07:43:28.680Z,-0.6
2023-02-02T07:44:28.815Z,-0.63
2023-02-02T07:45:28.815Z,-0.63
2023-02-02T07:46:29.246Z,-0.63
2023-02-02T07:47:28.675Z,-0.57
2023-02-02T07:48:29.500Z,-0.57
2023-02-02T07:49:28.792Z,-0.59
2023-02-02T07:50:29.812Z,-0.6
2023-02-02T07:51:28.750Z,-0.56
2023-02-02T07:52:29.130Z,-0.59
2023-02-02T07:53:28.977Z,-0.59
2023-02-02T07:54:30.916Z,-0.49
2023-02-02T07:55:33.563Z,-0.56
2023-02-02T07:56:33.743Z,-0.59
2023-02-02T07:57:33.562Z,-0.6
2023-02-02T07:58:33.495Z,-0.55
2023-02-02T07:59:33.517Z,-0.52
2023-02-02T08:00:33.514Z,-0.52
2023-02-02T08:01:33.441Z,-0.48
2023-02-02T08:02:33.454Z,-0.58
2023-02-02T08:03:33.875Z,-0.55
2023-02-02T08:04:33.456Z,-0.57
2023-02-02T08:05:33.518Z,-0.52
2023-02-02T08:06:34.855Z,-0.53
2023-02-02T08:07:36.495Z,-0.54
2023-02-02T08:08:33.505Z,-0.58
2023-02-02T08:09:33.543Z,-0.47
2023-02-02T08:10:33.579Z,-0.56
2023-02-02T08:11:34.243Z,-0.53
2023-02-02T08:12:33.583Z,-0.5
2023-02-02T08:13:33.756Z,-0.53
2023-02-02T08:14:33.604Z,-0.5
2023-02-02T08:15:33.671Z,-0.4
2023-02-02T08:16:34.150Z,-0.45
2023-02-02T08:17:33.683Z,-0.46
2023-02-02T08:18:34.653Z,-0.43
2023-02-02T08:19:33.886Z,-0.42
2023-02-02T08:20:34.148Z,-0.46
2023-02-02T08:21:34.317Z,-0.45
2023-02-02T08:22:33.755Z,-0.44
2023-02-02T08:23:33.922Z,-0.4
2023-02-02T08:24:34.027Z,-0.44
2023-02-02T08:25:33.796Z,-0.45
2023-02-02T08:26:33.981Z,-0.38
2023-02-02T08:27:35.259Z,-0.4
2023-02-02T08:28:33.917Z,-0.38
2023-02-02T08:29:34.369Z,-0.42
2023-02-02T08:30:37.002Z,-0.39
2023-02-02T08:31:38.097Z,-0.41
2023-02-02T08:32:34.433Z,-0.4
2023-02-02T08:33:34.467Z,-0.35
2023-02-02T08:34:34.508Z,-0.37
2023-02-02T08:35:34.518Z,-0.4
2023-02-02T08:36:34.554Z,-0.43
2023-02-02T08:37:34.583Z,-0.43
2023-02-02T08:38:34.561Z,-0.4
2023-02-02T08:39:34.568Z,-0.32
2023-02-02T08:40:34.654Z,-0.39
2023-02-02T08:41:35.056Z,-0.41
2023-02-02T08:42:34.755Z,-0.42
2023-02-02T08:43:34.993Z,-0.41
2023-02-02T08:46:00.215Z,-0.37
2023-02-02T08:46:03.134Z,-0.38
2023-02-02T08:46:37.247Z,-0.38
2023-02-02T08:47:37.434Z,-0.34
2023-02-02T08:48:37.764Z,-0.35
2023-02-02T08:49:37.290Z,-0.32
2023-02-02T08:50:37.307Z,-0.32
2023-02-02T08:51:37.309Z,-0.3
2023-02-02T08:52:37.313Z,-0.28
2023-02-02T08:53:37.402Z,-0.31
2023-02-02T08:54:37.362Z,-0.35
2023-02-02T08:55:37.384Z,-0.32
2023-02-02T08:56:37.608Z,-0.28
2023-02-02T08:57:37.411Z,-0.38
2023-02-02T08:58:37.475Z,-0.4
2023-02-02T08:59:37.427Z,-0.39
2023-02-02T09:00:37.476Z,-0.37
2023-02-02T09:01:37.461Z,-0.38
2023-02-02T09:02:37.573Z,-0.36
2023-02-02T09:03:37.982Z,-0.35
2023-02-02T09:04:37.503Z,-0.35
2023-02-02T09:05:37.534Z,-0.35
2023-02-02T09:06:39.216Z,-0.28
2023-02-02T09:07:37.549Z,-0.28
2023-02-02T09:08:37.827Z,-0.34
2023-02-02T09:09:37.744Z,-0.32
2023-02-02T09:10:38.143Z,-0.34
2023-02-02T09:11:38.234Z,-0.34
2023-02-02T09:12:37.698Z,-0.34
2023-02-02T09:13:39.087Z,-0.3
2023-02-02T09:14:37.673Z,-0.33
2023-02-02T09:15:37.688Z,-0.32
2023-02-02T09:16:38.033Z,-0.36
2023-02-02T09:17:37.740Z,-0.34
2023-02-02T09:18:38.084Z,-0.37
2023-02-02T09:19:37.870Z,-0.28
2023-02-02T09:20:37.796Z,-0.3
2023-02-02T09:21:37.810Z,-0.31
2023-02-02T09:22:37.828Z,-0.35
2023-02-02T09:23:39.037Z,-0.31
2023-02-02T09:24:37.906Z,-0.3
2023-02-02T09:25:37.859Z,-0.28
2023-02-02T09:26:38.166Z,-0.29
2023-02-02T09:27:38.142Z,-0.29
2023-02-02T09:28:39.365Z,-0.3
2023-02-02T09:29:38.121Z,-0.29
2023-02-02T09:30:37.970Z,-0.29
2023-02-02T09:31:38.428Z,-0.32
2023-02-02T09:32:37.982Z,-0.32
2023-02-02T09:33:38.158Z,-0.3
2023-02-02T09:34:40.100Z,-0.31
2023-02-02T09:35:38.019Z,-0.39
2023-02-02T09:36:38.787Z,-0.35
2023-02-02T09:37:38.262Z,-0.32
2023-02-02T09:38:38.428Z,-0.34
2023-02-02T09:39:38.095Z,-0.35
2023-02-02T09:40:40.393Z,-0.29
2023-02-02T09:43:45.303Z,-0.21
2023-02-02T09:45:47.751Z,-0.2
2023-02-02T09:46:51.894Z,-0.2
2023-02-02T09:47:52.606Z,-0.22
2023-02-02T09:51:59.892Z,-0.24
2023-02-02T09:54:02.710Z,-0.25
2023-02-02T09:55:03.085Z,-0.29
2023-02-02T09:56:01.226Z,-0.38
2023-02-02T09:57:00.130Z,-0.28
2023-02-02T09:58:01.691Z,-0.25
2023-02-02T09:59:13.697Z,-0.21
2023-02-02T10:00:06.219Z,-0.27
2023-02-02T10:01:09.627Z,-0.23
2023-02-02T10:03:13.075Z,-0.11
2023-02-02T10:04:14.859Z,-0.15
2023-02-02T10:05:15.449Z,-0.18
2023-02-02T10:07:19.082Z,-0.25
2023-02-02T10:13:32.313Z,-0.08
2023-02-02T10:14:39.063Z,-0.17
2023-02-02T10:15:39.654Z,-0.15
2023-02-02T10:16:31.946Z,-0.13
2023-02-02T10:19:38.973Z,-0.17
2023-02-02T10:22:39.132Z,-0.27
2023-02-02T10:24:41.206Z,-0.37
2023-02-02T10:27:54.200Z,-0.23
2023-02-02T10:45:31.088Z,-0.35
2023-02-02T10:47:33.775Z,-0.3
2023-02-02T10:48:34.623Z,-0.25
2023-02-02T10:49:34.656Z,-0.26
2023-02-02T10:50:34.316Z,-0.25
2023-02-02T10:51:33.906Z,-0.33
2023-02-02T10:52:34.400Z,-0.26
2023-02-02T10:53:33.674Z,-0.18
2023-02-02T10:55:39.986Z,-0.21
2023-02-02T10:56:40.292Z,-0.22
2023-02-02T10:58:40.156Z,-0.27
2023-02-02T11:01:41.737Z,-0.23
2023-02-02T11:02:41.888Z,-0.18
2023-02-02T11:03:41.809Z,-0.17
2023-02-02T11:04:41.731Z,-0.21
2023-02-02T11:05:41.853Z,-0.24
2023-02-02T11:06:41.816Z,-0.19
2023-02-02T11:07:41.782Z,-0.17
2023-02-02T11:08:43.108Z,-0.17
2023-02-02T11:09:42.668Z,-0.22
2023-02-02T11:10:43.049Z,-0.26
2023-02-02T11:11:43.457Z,-0.24
2023-02-02T11:12:43.806Z,-0.23
2023-02-02T11:13:49.565Z,-0.2
2023-02-02T11:14:47.600Z,-0.14
2023-02-02T11:15:45.804Z,-0.16
2023-02-02T11:16:46.109Z,-0.18
2023-02-02T11:17:45.853Z,-0.24
2023-02-02T11:18:45.995Z,-0.28
2023-02-02T11:19:45.882Z,-0.23
2023-02-02T11:20:45.871Z,-0.34
2023-02-02T11:21:47.417Z,-0.27
2023-02-02T11:22:45.916Z,-0.33
2023-02-02T11:24:48.607Z,-0.21
2023-02-02T11:25:56.977Z,-0.25
2023-02-02T11:26:50.299Z,-0.27
2023-02-02T11:27:48.578Z,-0.22
2023-02-02T11:28:49.111Z,-0.27
2023-02-02T11:29:52.618Z,-0.26
2023-02-02T11:30:50.656Z,-0.28
2023-02-02T11:31:49.100Z,-0.19
2023-02-02T11:32:48.897Z,-0.22
2023-02-02T11:33:50.291Z,-0.25
2023-02-02T11:34:48.982Z,-0.23
2023-02-02T11:35:57.170Z,-0.23
2023-02-02T11:37:56.847Z,-0.22
2023-02-02T11:42:04.784Z,-0.29
2023-02-02T11:43:03.697Z,-0.28
2023-02-02T11:44:01.050Z,-0.23
2023-02-02T11:45:01.185Z,-0.19
2023-02-02T11:46:03.297Z,-0.27
2023-02-02T11:47:03.481Z,-0.23
2023-02-02T11:48:02.520Z,-0.3
2023-02-02T11:49:02.585Z,-0.31
2023-02-02T11:50:02.166Z,-0.25
2023-02-02T11:51:01.632Z,-0.24
2023-02-02T11:52:02.948Z,-0.27
2023-02-02T11:53:01.545Z,-0.25
2023-02-02T11:55:14.477Z,-0.27
2023-02-02T11:56:11.672Z,-0.21
2023-02-02T11:57:09.137Z,-0.17
2023-02-02T12:00:24.746Z,-0.19
2023-02-02T12:02:27.244Z,-0.28
2023-02-02T12:03:35.533Z,-0.24
2023-02-02T12:04:27.271Z,-0.24
2023-02-02T12:05:36.751Z,-0.27
2023-02-02T12:06:37.638Z,-0.28
2023-02-02T12:07:32.556Z,-0.22
2023-02-02T12:08:29.588Z,-0.21
2023-02-02T12:09:29.446Z,-0.28
2023-02-02T12:10:36.813Z,-0.25
2023-02-02T12:16:56.196Z,-0.23
2023-02-02T12:17:57.119Z,-0.16
2023-02-02T12:21:04.495Z,-0.25
2023-02-02T12:29:23.439Z,-0.18
2023-02-02T12:33:34.877Z,-0.07
2023-02-02T12:57:48.367Z,-0.11
2023-02-02T12:58:45.002Z,-0.11
2023-02-02T13:03:57.903Z,-0.17
2023-02-02T13:07:09.213Z,-0.18
2023-02-02T13:08:03.810Z,-0.17
2023-02-02T13:09:13.993Z,-0.21
2023-02-02T13:11:11.606Z,-0.19
2023-02-02T13:12:10.102Z,-0.29
2023-02-02T13:15:18.976Z,-0.3
2023-02-02T13:16:16.309Z,-0.29
2023-02-02T13:17:17.792Z,-0.24
2023-02-02T13:21:25.817Z,-0.28
2023-02-02T13:22:29.004Z,-0.3
2023-02-02T13:23:28.537Z,-0.25
2023-02-02T13:24:31.579Z,-0.27
2023-02-02T13:25:30.463Z,-0.28
2023-02-02T13:26:30.615Z,-0.24
2023-02-02T13:27:29.636Z,-0.25
2023-02-02T13:28:34.604Z,-0.22
2023-02-02T13:29:48.334Z,-0.23
2023-02-02T13:30:38.707Z,-0.25
2023-02-02T13:31:44.297Z,-0.27
2023-02-02T13:32:38.199Z,-0.24
2023-02-02T13:33:37.589Z,-0.26
2023-02-02T13:34:47.188Z,-0.3
2023-02-02T13:36:41.733Z,-0.27
2023-02-02T13:38:41.959Z,-0.28
2023-02-02T13:39:44.846Z,-0.27
2023-02-02T13:40:43.428Z,-0.31
2023-02-02T13:41:42.560Z,-0.32
2023-02-02T13:42:45.114Z,-0.32
2023-02-02T13:44:49.529Z,-0.35
2023-02-02T13:47:57.516Z,-0.31
2023-02-02T13:50:01.305Z,-0.36
2023-02-02T13:59:28.398Z,-0.38
2023-02-02T14:00:28.429Z,-0.41
2023-02-02T14:01:20.803Z,-0.44
2023-02-02T14:03:27.455Z,-0.41
2023-02-02T14:04:30.931Z,-0.44
2023-02-02T14:05:35.357Z,-0.47
2023-02-02T14:07:43.684Z,-0.48
2023-02-02T14:09:48.138Z,-0.43
2023-02-02T14:10:57.574Z,-0.45
2023-02-02T14:11:54.205Z,-0.45
2023-02-02T14:12:51.625Z,-0.45
2023-02-02T14:13:53.390Z,-0.45
2023-02-02T14:14:51.034Z,-0.43
2023-02-02T14:15:55.381Z,-0.47
2023-02-02T14:16:52.410Z,-0.43
2023-02-02T14:17:53.546Z,-0.41
2023-02-02T14:18:53.110Z,-0.45
2023-02-02T14:20:01.928Z,-0.42
2023-02-02T14:20:53.737Z,-0.44
2023-02-02T14:22:01.123Z,-0.43
2023-02-02T14:22:57.919Z,-0.44
2023-02-02T14:23:58.918Z,-0.42
2023-02-02T14:24:57.950Z,-0.4
2023-02-02T14:26:04.218Z,-0.44
2023-02-02T14:27:02.096Z,-0.43
2023-02-02T14:28:02.529Z,-0.48
2023-02-02T14:29:00.962Z,-0.45
2023-02-02T14:30:01.035Z,-0.44
2023-02-02T14:36:14.644Z,-0.47
2023-02-02T14:39:21.527Z,-0.46
2023-02-02T14:43:44.324Z,-0.47
2023-02-02T14:44:36.040Z,-0.5
2023-02-02T14:45:39.916Z,-0.48
2023-02-02T14:46:38.404Z,-0.44
2023-02-02T14:47:47.258Z,-0.49
2023-02-02T14:48:42.747Z,-0.43
2023-02-02T14:49:39.516Z,-0.46
2023-02-02T14:52:41.497Z,-0.5
2023-02-02T14:53:48.002Z,-0.52
2023-02-02T14:54:48.885Z,-0.51
2023-02-02T14:55:56.762Z,-0.49
2023-02-02T14:56:50.345Z,-0.47
2023-02-02T14:57:58.824Z,-0.45
2023-02-02T14:58:57.177Z,-0.48
2023-02-02T14:59:54.878Z,-0.51
2023-02-02T15:00:56.469Z,-0.49
2023-02-02T15:02:00.837Z,-0.49
2023-02-02T15:11:18.033Z,-0.53
2023-02-02T15:14:28.191Z,-0.53
2023-02-02T15:15:28.515Z,-0.54
2023-02-02T15:16:29.618Z,-0.5
2023-02-02T15:21:38.069Z,-0.52
2023-02-02T15:23:42.226Z,-0.52
2023-02-02T15:24:39.018Z,-0.53
2023-02-02T15:26:41.333Z,-0.58
2023-02-02T15:27:51.423Z,-0.55
2023-02-02T15:28:52.778Z,-0.58
2023-02-02T15:29:45.755Z,-0.59
2023-02-02T15:30:45.438Z,-0.57
2023-02-02T15:31:46.789Z,-0.54
2023-02-02T15:32:45.204Z,-0.55
2023-02-02T15:33:46.867Z,-0.54
2023-02-02T15:34:49.884Z,-0.57
2023-02-02T15:35:47.184Z,-0.55
2023-02-02T15:36:48.366Z,-0.58
2023-02-02T15:37:49.263Z,-0.56
2023-02-02T15:38:49.239Z,-0.57
2023-02-02T15:39:48.484Z,-0.57
2023-02-02T15:40:46.814Z,-0.57
2023-02-02T15:41:47.738Z,-0.57
2023-02-02T15:42:49.970Z,-0.61
2023-02-02T15:43:46.707Z,-0.61
2023-02-02T15:44:46.679Z,-0.59
2023-02-02T15:45:54.205Z,-0.58
2023-02-02T15:46:50.991Z,-0.59
2023-02-02T15:47:50.976Z,-0.59
2023-02-02T15:49:55.604Z,-0.59
2023-02-02T15:50:57.027Z,-0.57
2023-02-02T15:51:56.709Z,-0.56
2023-02-02T15:52:55.818Z,-0.56
2023-02-02T15:53:56.530Z,-0.55
2023-02-02T15:54:56.757Z,-0.54
2023-02-02T15:55:56.438Z,-0.52
2023-02-02T15:56:57.462Z,-0.57
2023-02-02T15:57:56.066Z,-0.58
2023-02-02T15:58:57.369Z,-0.6
2023-02-02T15:59:56.369Z,-0.6
2023-02-02T16:00:57.571Z,-0.63
2023-02-02T16:04:14.480Z,-0.62
2023-02-02T16:06:10.024Z,-0.63
2023-02-02T16:07:12.291Z,-0.61
2023-02-02T16:09:23.671Z,-0.65
2023-02-02T16:10:18.911Z,-0.65
2023-02-02T16:11:19.998Z,-0.65
2023-02-02T16:12:19.575Z,-0.66
2023-02-02T16:13:21.332Z,-0.67
2023-02-02T16:14:18.207Z,-0.69